Time;durP1;ratioP1;P1;durP2;ratioP2;P2;SDS_P1;SDS_P2;PMS_P1;PMS_P2;Temp;Humidity;BMP_temperature;BMP_pressure;BME280_temperature;BME280_humidity;BME280_pressure;Samples;Min_cycle;Max_cycle;Signal;HPM_P1;HPM_P2
2021/11/14 00:00:35;;;;;;;13.73;12.33;;;10.00;99.90;;;;;;5053586;28;20228;-57
2021/11/14 00:03:03;;;;;;;13.57;12.13;;;10.00;99.90;;;;;;5053804;28;20584;-57
2021/11/14 00:05:30;;;;;;;14.47;12.30;;;10.00;99.90;;;;;;5053676;28;20248;-59
2021/11/14 00:07:57;;;;;;;14.33;12.77;;;9.90;99.90;;;;;;5053369;28;20696;-56
2021/11/14 00:10:23;;;;;;;16.03;13.87;;;9.90;99.90;;;;;;5053685;28;20450;-57
2021/11/14 00:12:50;;;;;;;14.93;13.33;;;9.90;99.90;;;;;;5053619;28;20205;-57
2021/11/14 00:15:18;;;;;;;14.93;12.60;;;10.00;99.90;;;;;;5053275;28;20201;-57
2021/11/14 00:17:45;;;;;;;15.93;12.60;;;10.00;99.90;;;;;;5053561;28;20205;-60
2021/11/14 00:20:13;;;;;;;15.47;11.97;;;10.10;99.90;;;;;;5053544;28;20680;-60
2021/11/14 00:22:40;;;;;;;18.10;12.50;;;10.10;99.90;;;;;;5053596;28;20689;-58
2021/11/14 00:25:09;;;;;;;14.70;12.23;;;10.10;99.90;;;;;;5053394;28;20225;-57
2021/11/14 00:27:36;;;;;;;14.80;13.00;;;10.10;99.90;;;;;;5053305;28;20585;-58
2021/11/14 00:30:04;;;;;;;15.40;12.20;;;10.00;99.90;;;;;;5053739;28;20229;-60
2021/11/14 00:32:32;;;;;;;14.00;12.43;;;10.00;99.90;;;;;;5054183;28;20568;-57
2021/11/14 00:34:58;;;;;;;14.63;11.93;;;10.00;99.90;;;;;;5053368;28;20205;-57
2021/11/14 00:37:25;;;;;;;15.37;12.53;;;10.00;99.90;;;;;;5053599;28;20202;-57
2021/11/14 00:39:52;;;;;;;16.73;13.20;;;9.90;99.90;;;;;;5053147;28;20229;-57
2021/11/14 00:42:18;;;;;;;14.47;12.63;;;9.90;99.90;;;;;;5053271;28;20201;-58
2021/11/14 00:44:45;;;;;;;13.33;11.93;;;9.90;99.90;;;;;;5053154;28;20229;-57
2021/11/14 00:47:12;;;;;;;15.80;12.47;;;9.90;99.90;;;;;;5053564;28;20251;-58
2021/11/14 00:49:40;;;;;;;15.77;13.33;;;9.90;99.90;;;;;;5052893;28;20209;-56
2021/11/14 00:52:07;;;;;;;17.10;13.83;;;9.90;99.90;;;;;;5051780;28;20205;-58
2021/11/14 00:54:34;;;;;;;15.80;12.90;;;9.90;99.90;;;;;;5052907;28;20570;-58
2021/11/14 00:57:01;;;;;;;16.47;13.10;;;9.90;99.90;;;;;;5052784;28;20201;-58
2021/11/14 00:59:27;;;;;;;15.30;12.93;;;10.00;99.90;;;;;;5052799;28;20206;-58
2021/11/14 01:01:54;;;;;;;14.60;12.87;;;10.00;99.90;;;;;;5052746;28;20228;-57
2021/11/14 01:04:21;;;;;;;15.30;13.60;;;10.10;99.90;;;;;;5052814;28;20221;-59
2021/11/14 01:06:49;;;;;;;13.70;11.40;;;10.10;99.90;;;;;;5052596;28;20237;-57
2021/11/14 01:09:16;;;;;;;15.83;12.43;;;10.10;99.90;;;;;;5052502;28;20210;-57
2021/11/14 01:11:43;;;;;;;15.60;12.57;;;10.20;99.90;;;;;;5052368;28;20241;-58
2021/11/14 01:14:09;;;;;;;14.73;12.83;;;10.30;99.90;;;;;;5052525;28;20209;-58
2021/11/14 01:16:36;;;;;;;16.10;14.00;;;10.40;99.90;;;;;;5052545;28;20208;-58
2021/11/14 01:19:03;;;;;;;15.10;12.73;;;10.40;99.90;;;;;;5052387;28;20213;-58
2021/11/14 01:21:31;;;;;;;16.33;13.50;;;10.60;99.90;;;;;;5052210;28;20229;-58
2021/11/14 01:24:00;;;;;;;15.53;13.10;;;10.70;99.90;;;;;;5052104;28;20439;-57
2021/11/14 01:26:28;;;;;;;14.37;12.43;;;10.80;99.90;;;;;;5052240;28;20212;-58
2021/11/14 01:28:54;;;;;;;14.60;12.33;;;10.80;99.90;;;;;;5052248;28;20209;-58
2021/11/14 01:31:21;;;;;;;15.03;12.40;;;10.80;99.90;;;;;;5052320;28;20226;-58
2021/11/14 01:33:48;;;;;;;16.53;13.73;;;10.80;99.90;;;;;;5052213;28;20206;-57
2021/11/14 01:36:15;;;;;;;13.93;12.37;;;10.80;99.90;;;;;;5052225;28;20209;-57
2021/11/14 01:38:42;;;;;;;14.87;12.73;;;10.80;99.90;;;;;;5052175;28;20218;-58
2021/11/14 01:41:12;;;;;;;15.80;12.90;;;10.80;99.90;;;;;;5075429;22;20237;-60
2021/11/14 01:43:42;;;;;;;14.50;12.13;;;10.60;99.90;;;;;;5052201;28;20220;-60
2021/11/14 01:46:09;;;;;;;13.90;11.97;;;10.70;99.90;;;;;;5052326;28;20229;-60
2021/11/14 01:48:36;;;;;;;15.40;12.20;;;10.60;99.90;;;;;;5051954;28;20213;-60
2021/11/14 01:51:04;;;;;;;13.63;11.40;;;10.50;99.90;;;;;;5052292;28;20229;-60
2021/11/14 01:53:31;;;;;;;14.67;12.87;;;10.50;99.90;;;;;;5052086;28;20300;-60
2021/11/14 01:55:58;;;;;;;15.67;12.40;;;10.40;99.90;;;;;;5052269;28;20207;-60
2021/11/14 01:58:27;;;;;;;14.60;12.37;;;10.40;99.90;;;;;;5052029;28;20216;-60
2021/11/14 02:00:57;;;;;;;15.17;12.93;;;10.30;99.90;;;;;;5051772;28;20731;-60
2021/11/14 02:03:25;;;;;;;16.50;12.00;;;10.20;99.90;;;;;;5052487;28;20209;-59
2021/11/14 02:05:52;;;;;;;14.60;13.00;;;10.20;99.90;;;;;;5052394;28;20236;-60
2021/11/14 02:08:19;;;;;;;16.83;13.30;;;10.10;99.90;;;;;;5052498;28;20208;-60
2021/11/14 02:10:46;;;;;;;14.73;12.70;;;10.10;99.90;;;;;;5051706;28;20229;-60
2021/11/14 02:13:13;;;;;;;16.70;13.70;;;10.20;99.90;;;;;;5051765;28;20213;-60
2021/11/14 02:15:41;;;;;;;15.80;12.63;;;10.30;99.90;;;;;;5052080;28;20202;-60
2021/11/14 02:18:11;;;;;;;15.20;12.27;;;10.40;99.90;;;;;;5051493;28;20570;-60
2021/11/14 02:20:40;;;;;;;14.83;13.17;;;10.50;99.90;;;;;;5051838;28;20229;-60
2021/11/14 02:23:09;;;;;;;16.47;14.00;;;10.50;99.90;;;;;;5052273;28;20206;-60
2021/11/14 02:25:36;;;;;;;15.30;13.20;;;10.60;99.90;;;;;;5051403;28;20233;-60
2021/11/14 02:28:03;;;;;;;14.00;12.37;;;10.60;99.90;;;;;;5051518;28;20270;-60
2021/11/14 02:30:30;;;;;;;20.83;13.33;;;10.60;99.90;;;;;;5051517;28;20237;-59
2021/11/14 02:32:57;;;;;;;15.20;12.57;;;10.60;99.90;;;;;;5051363;28;20219;-60
2021/11/14 02:35:25;;;;;;;14.37;12.13;;;10.70;99.90;;;;;;5051514;28;20209;-60
2021/11/14 02:37:54;;;;;;;15.00;12.27;;;10.70;99.90;;;;;;5051087;28;20221;-60
2021/11/14 02:40:21;;;;;;;18.17;13.40;;;10.70;99.90;;;;;;5050887;28;20709;-60
2021/11/14 02:42:49;;;;;;;14.10;12.50;;;10.70;99.90;;;;;;5051275;28;20255;-60
2021/11/14 02:45:19;;;;;;;14.57;12.80;;;10.80;99.90;;;;;;5050817;28;20233;-60
2021/11/14 02:47:45;;;;;;;13.93;12.30;;;10.80;99.90;;;;;;5051172;28;20205;-59
2021/11/14 02:50:12;;;;;;;14.63;12.80;;;10.80;99.90;;;;;;5051238;28;20214;-60
2021/11/14 02:52:39;;;;;;;16.90;12.63;;;10.80;99.90;;;;;;5051593;28;20205;-60
2021/11/14 02:55:11;;;;;;;14.90;12.27;;;10.80;99.90;;;;;;5051380;28;20201;-60
2021/11/14 02:57:38;;;;;;;14.43;12.70;;;10.80;99.90;;;;;;5051674;28;20205;-60
2021/11/14 03:00:08;;;;;;;15.40;12.30;;;10.80;99.90;;;;;;5050904;28;20706;-60
2021/11/14 03:02:34;;;;;;;14.90;12.47;;;10.90;99.90;;;;;;5051142;28;20217;-60
2021/11/14 03:05:06;;;;;;;14.53;12.37;;;10.80;99.90;;;;;;5050930;28;20221;-60
2021/11/14 03:07:33;;;;;;;13.23;11.57;;;10.80;99.90;;;;;;5052875;28;20221;-60
2021/11/14 03:10:00;;;;;;;15.10;12.23;;;10.80;99.90;;;;;;5050630;28;20613;-60
2021/11/14 03:12:28;;;;;;;15.37;12.53;;;10.80;99.90;;;;;;5050482;28;20217;-60
2021/11/14 03:14:57;;;;;;;15.27;12.63;;;10.80;99.90;;;;;;5051926;28;20208;-60
2021/11/14 03:17:24;;;;;;;19.83;12.67;;;10.70;99.90;;;;;;5054866;28;20213;-60
2021/11/14 03:19:51;;;;;;;13.60;12.20;;;10.70;99.90;;;;;;5054556;28;20673;-60
2021/11/14 03:22:18;;;;;;;14.97;13.10;;;10.60;99.90;;;;;;5054843;28;20236;-60
2021/11/14 03:24:45;;;;;;;16.90;13.40;;;10.40;99.90;;;;;;5054297;28;20205;-60
2021/11/14 03:27:13;;;;;;;17.43;14.93;;;10.30;99.90;;;;;;5054929;28;20206;-60
2021/11/14 03:29:41;;;;;;;18.27;14.70;;;10.20;99.90;;;;;;5055939;28;20234;-60
2021/11/14 03:32:12;;;;;;;15.10;13.17;;;10.10;99.90;;;;;;5055385;28;20229;-60
2021/11/14 03:34:39;;;;;;;16.93;14.47;;;10.10;99.90;;;;;;5055167;28;20205;-60
2021/11/14 03:37:12;;;;;;;18.63;14.47;;;10.10;99.90;;;;;;5055177;28;20213;-60
2021/11/14 03:39:39;;;;;;;18.23;14.50;;;10.10;99.90;;;;;;5054294;28;20210;-60
2021/11/14 03:42:06;;;;;;;24.53;19.33;;;10.10;99.90;;;;;;5054121;28;20748;-60
2021/11/14 03:44:33;;;;;;;17.37;14.07;;;10.00;99.90;;;;;;5054268;28;20209;-60
2021/11/14 03:47:01;;;;;;;16.30;14.10;;;10.00;99.90;;;;;;5054582;28;20210;-60
2021/11/14 03:49:27;;;;;;;18.80;14.57;;;10.10;99.90;;;;;;5054616;28;20693;-60
2021/11/14 03:51:55;;;;;;;18.37;14.80;;;10.10;99.90;;;;;;5054224;28;20225;-60
2021/11/14 03:54:22;;;;;;;16.27;14.10;;;10.20;99.90;;;;;;5054479;28;20210;-60
2021/11/14 03:56:48;;;;;;;19.57;16.70;;;10.20;99.90;;;;;;5054244;28;20204;-60
2021/11/14 03:59:15;;;;;;;17.40;14.80;;;10.30;99.90;;;;;;5054272;28;20206;-60
2021/11/14 04:01:42;;;;;;;17.23;14.30;;;10.40;99.90;;;;;;5054006;28;20226;-60
2021/11/14 04:04:10;;;;;;;19.00;15.80;;;10.40;99.90;;;;;;5053806;28;20205;-60
2021/11/14 04:06:37;;;;;;;16.23;14.37;;;10.50;99.90;;;;;;5053766;28;20222;-60
2021/11/14 04:09:04;;;;;;;17.03;14.17;;;10.50;99.90;;;;;;5053801;28;20210;-60
2021/11/14 04:11:30;;;;;;;17.33;12.90;;;10.50;99.90;;;;;;5053694;28;20259;-60
2021/11/14 04:13:57;;;;;;;16.33;14.20;;;10.50;99.90;;;;;;5053754;28;20563;-60
2021/11/14 04:16:24;;;;;;;16.07;13.87;;;10.50;99.90;;;;;;5053887;28;20232;-60
2021/11/14 04:18:50;;;;;;;16.10;14.27;;;10.60;99.90;;;;;;5053682;28;20263;-60
2021/11/14 04:21:18;;;;;;;15.13;13.10;;;10.60;99.90;;;;;;5053564;28;20778;-60
2021/11/14 04:23:45;;;;;;;16.10;13.73;;;10.70;99.90;;;;;;5053564;28;20252;-60
2021/11/14 04:26:12;;;;;;;15.47;13.30;;;10.60;99.90;;;;;;5053470;28;20251;-60
2021/11/14 04:28:39;;;;;;;16.27;13.83;;;10.60;99.90;;;;;;5053623;28;20259;-60
2021/11/14 04:31:06;;;;;;;15.27;13.37;;;10.60;99.90;;;;;;5053375;28;20229;-60
2021/11/14 04:33:33;;;;;;;13.60;12.17;;;10.70;99.90;;;;;;5053244;28;20201;-60
2021/11/14 04:36:00;;;;;;;16.37;12.87;;;10.60;99.90;;;;;;5053408;28;20225;-60
2021/11/14 04:38:28;;;;;;;16.47;13.33;;;10.60;99.90;;;;;;5053439;28;20666;-60
2021/11/14 04:40:55;;;;;;;17.67;14.00;;;10.60;99.90;;;;;;5053345;28;20236;-60
2021/11/14 04:43:22;;;;;;;16.27;13.63;;;10.50;99.90;;;;;;5053625;28;20206;-60
2021/11/14 04:45:51;;;;;;;15.83;13.73;;;10.50;99.90;;;;;;5053496;28;20312;-60
2021/11/14 04:48:18;;;;;;;17.90;14.17;;;10.50;99.90;;;;;;5053195;28;20206;-60
2021/11/14 04:50:45;;;;;;;16.27;13.93;;;10.60;99.90;;;;;;5053248;28;20229;-60
2021/11/14 04:53:12;;;;;;;14.67;13.00;;;10.50;99.90;;;;;;5053349;28;20251;-60
2021/11/14 04:55:41;;;;;;;16.37;13.73;;;10.70;99.90;;;;;;5053122;28;20669;-60
2021/11/14 04:58:08;;;;;;;15.80;13.17;;;10.70;99.90;;;;;;5052882;28;20208;-59
2021/11/14 05:00:39;;;;;;;15.70;12.83;;;10.80;99.90;;;;;;5052757;28;20709;-60
2021/11/14 05:03:06;;;;;;;14.83;12.17;;;10.80;99.90;;;;;;5053235;28;20237;-60
2021/11/14 05:05:33;;;;;;;15.10;12.73;;;10.70;99.90;;;;;;5053043;28;20218;-60
2021/11/14 05:08:00;;;;;;;16.33;13.20;;;10.80;99.90;;;;;;5052899;28;20209;-60
2021/11/14 05:10:27;;;;;;;15.40;12.67;;;10.80;99.90;;;;;;5052829;28;20736;-60
2021/11/14 05:12:55;;;;;;;15.40;12.43;;;10.90;99.90;;;;;;5052624;28;20205;-60
2021/11/14 05:15:22;;;;;;;16.03;13.30;;;10.90;99.90;;;;;;5052426;28;20209;-60
2021/11/14 05:17:49;;;;;;;16.77;12.70;;;11.00;99.90;;;;;;5052702;28;20607;-60
2021/11/14 05:20:15;;;;;;;14.23;11.87;;;11.10;99.90;;;;;;5052953;28;20214;-60
2021/11/14 05:22:42;;;;;;;14.10;11.43;;;11.10;99.90;;;;;;5052648;28;20240;-60
2021/11/14 05:25:10;;;;;;;12.90;11.47;;;11.10;99.90;;;;;;5052252;28;20205;-60
2021/11/14 05:27:36;;;;;;;16.73;14.43;;;11.20;99.90;;;;;;5052451;28;20213;-59
2021/11/14 05:30:07;;;;;;;16.40;13.27;;;11.20;99.90;;;;;;5052065;28;20687;-60
2021/11/14 05:32:34;;;;;;;18.17;14.87;;;11.00;99.90;;;;;;5052605;28;20331;-60
2021/11/14 05:35:00;;;;;;;14.00;12.00;;;11.00;99.90;;;;;;5052339;28;20205;-60
2021/11/14 05:37:27;;;;;;;12.90;11.60;;;11.00;99.90;;;;;;5052044;28;20631;-60
2021/11/14 05:39:54;;;;;;;19.67;13.80;;;11.20;99.90;;;;;;5051963;28;20206;-60
2021/11/14 05:42:22;;;;;;;14.00;12.30;;;11.30;99.90;;;;;;5051941;28;20229;-60
2021/11/14 05:44:48;;;;;;;15.27;11.67;;;11.40;99.90;;;;;;5052024;28;20210;-60
2021/11/14 05:47:16;;;;;;;14.90;12.43;;;11.50;99.90;;;;;;5052162;28;20275;-60
2021/11/14 05:49:43;;;;;;;13.70;11.60;;;11.50;99.90;;;;;;5052006;28;20206;-60
2021/11/14 05:52:10;;;;;;;14.37;12.27;;;11.50;99.90;;;;;;5052658;28;20226;-60
2021/11/14 05:54:36;;;;;;;24.57;19.50;;;11.50;99.90;;;;;;5052051;28;20228;-60
2021/11/14 05:57:04;;;;;;;14.00;12.03;;;11.50;99.90;;;;;;5051817;28;20209;-60
2021/11/14 05:59:37;;;;;;;14.13;11.60;;;11.50;99.90;;;;;;5052068;28;20217;-60
2021/11/14 06:02:08;;;;;;;14.40;12.23;;;11.50;99.90;;;;;;5051914;28;20315;-60
2021/11/14 06:04:40;;;;;;;14.13;11.30;;;11.50;99.90;;;;;;5051785;28;20235;-60
2021/11/14 06:07:07;;;;;;;14.60;11.47;;;11.50;99.90;;;;;;5051491;28;20226;-60
2021/11/14 06:09:34;;;;;;;14.13;11.90;;;11.30;99.90;;;;;;5051334;28;20259;-60
2021/11/14 06:12:00;;;;;;;17.27;12.50;;;11.30;99.90;;;;;;5052525;28;20229;-60
2021/11/14 06:14:29;;;;;;;13.00;10.90;;;11.30;99.90;;;;;;5053730;28;20206;-60
2021/11/14 06:16:55;;;;;;;14.63;11.77;;;11.20;99.90;;;;;;5052084;28;20204;-60
2021/11/14 06:19:22;;;;;;;12.37;11.10;;;11.20;99.90;;;;;;5051545;28;20748;-60
2021/11/14 06:21:50;;;;;;;13.03;11.63;;;11.20;99.90;;;;;;5051456;28;20229;-60
2021/11/14 06:24:17;;;;;;;17.77;13.87;;;11.20;99.90;;;;;;5051297;28;20213;-60
2021/11/14 06:26:44;;;;;;;14.53;11.73;;;11.20;99.90;;;;;;5051603;28;20221;-60
2021/11/14 06:29:11;;;;;;;15.97;12.37;;;11.10;99.90;;;;;;5051555;28;20248;-60
2021/11/14 06:31:38;;;;;;;17.23;13.17;;;11.10;99.90;;;;;;5051561;28;20229;-60
2021/11/14 06:34:05;;;;;;;16.67;12.30;;;11.10;99.90;;;;;;5051284;28;20272;-60
2021/11/14 06:36:33;;;;;;;16.57;12.13;;;11.00;99.90;;;;;;5051414;28;20206;-60
2021/11/14 06:39:01;;;;;;;16.07;13.03;;;11.10;99.90;;;;;;5051950;28;20662;-60
2021/11/14 06:41:28;;;;;;;14.97;11.90;;;11.10;99.90;;;;;;5051280;28;20240;-60
2021/11/14 06:43:54;;;;;;;15.70;12.77;;;11.10;99.90;;;;;;5051229;28;20202;-60
2021/11/14 06:46:21;;;;;;;15.10;12.17;;;11.10;99.90;;;;;;5051547;28;20221;-60
2021/11/14 06:48:48;;;;;;;14.30;11.60;;;11.10;99.90;;;;;;5050368;28;20275;-60
2021/11/14 06:51:15;;;;;;;14.43;12.17;;;11.00;99.90;;;;;;5051056;28;20233;-60
2021/11/14 06:53:41;;;;;;;14.57;12.23;;;11.00;99.90;;;;;;5051384;28;20205;-60
2021/11/14 06:56:09;;;;;;;15.70;13.10;;;11.00;99.90;;;;;;5051082;28;20692;-60
2021/11/14 06:58:36;;;;;;;23.87;21.37;;;11.10;99.90;;;;;;5051096;28;20216;-60
2021/11/14 07:01:03;;;;;;;16.23;11.97;;;11.10;99.90;;;;;;5051145;28;20255;-60
2021/11/14 07:03:30;;;;;;;14.37;12.87;;;11.10;99.90;;;;;;5051168;28;20214;-60
2021/11/14 07:05:57;;;;;;;17.20;13.87;;;11.10;99.90;;;;;;5050877;28;20218;-60
2021/11/14 07:08:23;;;;;;;18.47;14.33;;;11.20;99.90;;;;;;5050859;28;20641;-60
2021/11/14 07:10:50;;;;;;;15.13;13.27;;;11.10;99.90;;;;;;5050925;28;20230;-60
2021/11/14 07:13:18;;;;;;;16.70;13.83;;;11.00;99.90;;;;;;5050773;28;20208;-60
2021/11/14 07:15:45;;;;;;;14.80;12.47;;;11.00;99.90;;;;;;5050859;28;20205;-60
2021/11/14 07:18:12;;;;;;;13.80;12.20;;;10.90;99.90;;;;;;5050625;28;20217;-60
2021/11/14 07:20:39;;;;;;;15.03;11.67;;;10.90;99.90;;;;;;5051050;28;20233;-60
2021/11/14 07:23:06;;;;;;;14.30;11.60;;;10.90;99.90;;;;;;5051125;28;20209;-60
2021/11/14 07:25:33;;;;;;;14.33;12.00;;;10.80;99.90;;;;;;5050651;28;20201;-59
2021/11/14 07:28:00;;;;;;;12.73;11.27;;;10.90;99.90;;;;;;5050143;28;20237;-59
2021/11/14 07:30:28;;;;;;;16.33;13.70;;;10.90;99.90;;;;;;5050884;28;20234;-59
2021/11/14 07:32:55;;;;;;;15.20;12.93;;;11.00;99.90;;;;;;5050389;28;20202;-59
2021/11/14 07:35:25;;;;;;;19.77;15.90;;;11.10;99.90;;;;;;5050754;28;20209;-59
2021/11/14 07:37:51;;;;;;;12.67;11.33;;;11.30;99.90;;;;;;5050674;28;20206;-62
2021/11/14 07:42:45;;;;;;;13.50;12.07;;;11.40;99.90;;;;;;5070597;22;20233;-60
2021/11/14 07:45:13;;;;;;;12.70;11.07;;;11.40;99.90;;;;;;5050497;28;20213;-59
2021/11/14 07:47:42;;;;;;;13.37;11.10;;;11.50;99.90;;;;;;5050306;28;20758;-59
2021/11/14 07:50:11;;;;;;;13.23;11.20;;;11.60;99.90;;;;;;5050674;28;20205;-59
2021/11/14 07:52:38;;;;;;;11.87;10.60;;;11.40;99.90;;;;;;5050597;28;20647;-59
2021/11/14 07:55:07;;;;;;;12.83;10.87;;;11.30;99.90;;;;;;5050334;28;20317;-59
2021/11/14 07:57:34;;;;;;;13.03;10.20;;;11.20;99.90;;;;;;5050444;28;20202;-60
2021/11/14 08:00:01;;;;;;;11.93;10.60;;;11.20;99.90;;;;;;5050522;28;20214;-63
2021/11/14 08:02:28;;;;;;;14.97;11.50;;;11.20;99.90;;;;;;5054245;28;20222;-65
2021/11/14 08:04:56;;;;;;;12.63;11.30;;;11.10;99.90;;;;;;5054063;28;20210;-63
2021/11/14 08:07:23;;;;;;;12.63;10.73;;;11.00;99.90;;;;;;5054001;28;20237;-63
2021/11/14 08:09:49;;;;;;;13.70;11.40;;;11.10;99.90;;;;;;5053792;28;20216;-63
2021/11/14 08:12:16;;;;;;;15.70;12.17;;;11.20;99.90;;;;;;5053603;28;20225;-64
2021/11/14 08:14:43;;;;;;;14.17;10.93;;;11.20;99.90;;;;;;5053557;28;20248;-64
2021/11/14 08:17:10;;;;;;;15.57;12.30;;;11.30;99.90;;;;;;5053956;28;20202;-63
2021/11/14 08:19:36;;;;;;;12.53;10.87;;;11.50;99.90;;;;;;5053736;28;20209;-63
2021/11/14 08:22:05;;;;;;;12.20;10.90;;;11.70;99.90;;;;;;5053674;28;20548;-63
2021/11/14 08:24:32;;;;;;;12.87;11.47;;;11.80;99.90;;;;;;5053455;28;20209;-63
2021/11/14 08:26:58;;;;;;;14.23;11.20;;;11.90;99.90;;;;;;5053873;28;20229;-63
2021/11/14 08:29:25;;;;;;;14.57;12.00;;;12.00;99.90;;;;;;5054372;28;20275;-63
2021/11/14 08:31:52;;;;;;;13.37;11.00;;;12.10;99.90;;;;;;5053611;28;20233;-62
2021/11/14 08:34:19;;;;;;;12.37;10.60;;;12.20;99.90;;;;;;5053463;28;20209;-62
2021/11/14 08:36:46;;;;;;;13.07;11.67;;;12.20;99.90;;;;;;5053645;28;20240;-62
2021/11/14 08:39:14;;;;;;;13.60;10.83;;;12.30;99.90;;;;;;5053275;28;20209;-62
2021/11/14 08:41:41;;;;;;;12.50;11.17;;;12.30;99.90;;;;;;5053350;28;20298;-62
2021/11/14 08:44:08;;;;;;;12.77;10.97;;;12.30;99.90;;;;;;5053197;28;20205;-62
2021/11/14 08:46:37;;;;;;;13.57;11.23;;;12.30;99.90;;;;;;5053579;28;20325;-62
2021/11/14 08:49:04;;;;;;;13.27;10.93;;;12.30;99.90;;;;;;5053231;28;20231;-63
2021/11/14 08:51:31;;;;;;;12.20;10.83;;;12.30;99.90;;;;;;5053049;28;20229;-63
2021/11/14 08:53:59;;;;;;;13.07;11.40;;;12.30;99.90;;;;;;5052968;28;20206;-62
2021/11/14 08:56:28;;;;;;;13.07;11.30;;;12.50;99.90;;;;;;5053160;28;20308;-62
2021/11/14 08:58:55;;;;;;;12.13;10.83;;;12.60;99.90;;;;;;5052825;28;20588;-62
2021/11/14 09:01:22;;;;;;;12.53;11.23;;;12.70;99.90;;;;;;5052561;28;20226;-62
2021/11/14 09:03:49;;;;;;;13.37;10.80;;;12.90;99.90;;;;;;5052783;28;20206;-63
2021/11/14 09:06:16;;;;;;;13.67;11.20;;;13.10;99.90;;;;;;5052582;28;20209;-62
2021/11/14 09:08:43;;;;;;;12.80;10.80;;;13.30;99.90;;;;;;5052438;28;20260;-62
2021/11/14 09:11:10;;;;;;;14.47;12.07;;;13.50;99.90;;;;;;5052595;28;20651;-62
2021/11/14 09:13:38;;;;;;;12.93;11.57;;;13.60;99.90;;;;;;5051620;28;20216;-62
2021/11/14 09:16:05;;;;;;;11.70;10.50;;;13.80;99.90;;;;;;5052555;28;20268;-62
2021/11/14 09:18:32;;;;;;;11.73;10.53;;;13.80;99.90;;;;;;5052334;28;20635;-63
2021/11/14 09:20:59;;;;;;;12.87;11.07;;;13.70;99.90;;;;;;5052275;28;20249;-62
2021/11/14 09:23:27;;;;;;;15.00;10.80;;;13.70;99.90;;;;;;5052283;28;20220;-61
2021/11/14 09:25:55;;;;;;;11.93;10.60;;;13.50;99.90;;;;;;5052700;28;20244;-61
2021/11/14 09:28:22;;;;;;;12.60;11.00;;;13.30;99.90;;;;;;5052509;28;20229;-61
2021/11/14 09:30:51;;;;;;;12.80;10.80;;;13.20;99.90;;;;;;5052269;28;20226;-61
2021/11/14 09:33:20;;;;;;;12.83;10.73;;;13.20;99.90;;;;;;5052344;28;20209;-61
2021/11/14 09:35:47;;;;;;;12.70;11.03;;;13.10;99.90;;;;;;5052035;28;20201;-61
2021/11/14 09:38:14;;;;;;;12.80;11.40;;;13.00;99.90;;;;;;5052276;28;20677;-61
2021/11/14 09:40:42;;;;;;;14.00;11.80;;;13.00;99.90;;;;;;5051828;28;20235;-61
2021/11/14 09:43:09;;;;;;;12.50;11.03;;;13.10;99.90;;;;;;5051959;28;20201;-61
2021/11/14 09:45:38;;;;;;;14.00;12.13;;;13.20;99.90;;;;;;5051740;28;20216;-61
2021/11/14 09:48:07;;;;;;;14.57;12.43;;;13.20;99.90;;;;;;5052066;28;20229;-62
2021/11/14 09:50:34;;;;;;;13.97;12.00;;;13.10;99.90;;;;;;5051688;28;20201;-62
2021/11/14 09:53:00;;;;;;;15.97;12.07;;;13.10;99.90;;;;;;5052166;28;20232;-62
2021/11/14 09:55:33;;;;;;;15.67;12.30;;;13.10;99.90;;;;;;5051894;28;20209;-62
2021/11/14 09:58:00;;;;;;;14.77;12.27;;;13.20;99.90;;;;;;5051632;28;20205;-62
2021/11/14 10:00:28;;;;;;;13.53;11.83;;;13.30;99.90;;;;;;5051440;28;20209;-62
2021/11/14 10:02:55;;;;;;;16.50;12.70;;;13.30;99.90;;;;;;5051312;28;20214;-70
2021/11/14 10:05:23;;;;;;;14.67;12.20;;;13.40;99.90;;;;;;5028530;28;20297;-61
2021/11/14 10:07:58;;;;;;;16.33;12.73;;;13.40;99.90;;;;;;5031381;28;20233;-64
2021/11/14 10:10:27;;;;;;;14.83;12.70;;;13.20;99.90;;;;;;5031314;28;20213;-65
2021/11/14 10:12:55;;;;;;;14.57;12.00;;;13.10;99.90;;;;;;5031279;28;20209;-64
2021/11/14 10:15:25;;;;;;;14.37;11.80;;;13.10;99.90;;;;;;5030652;28;20670;-64
2021/11/14 10:17:55;;;;;;;15.07;12.03;;;13.20;99.90;;;;;;5031511;28;20248;-65
2021/11/14 10:20:24;;;;;;;15.17;11.60;;;13.30;99.90;;;;;;5030904;28;20210;-61
2021/11/14 10:22:54;;;;;;;13.77;11.37;;;13.30;99.90;;;;;;5030822;28;20210;-61
2021/11/14 10:25:21;;;;;;;13.47;11.53;;;13.40;99.90;;;;;;5030988;28;20567;-62
2021/11/14 10:27:49;;;;;;;15.23;11.53;;;13.60;99.90;;;;;;5030764;28;20226;-62
2021/11/14 10:30:16;;;;;;;14.10;11.73;;;13.70;99.90;;;;;;5031433;28;20202;-61
2021/11/14 10:32:44;;;;;;;14.60;12.07;;;13.80;99.90;;;;;;5031305;28;20229;-63
2021/11/14 10:35:11;;;;;;;15.63;11.97;;;13.80;99.90;;;;;;5030730;28;20552;-66
2021/11/14 10:37:44;;;;;;;16.30;12.87;;;13.80;99.90;;;;;;5031222;28;20206;-66
2021/11/14 10:40:15;;;;;;;15.90;12.60;;;13.80;99.90;;;;;;5031024;28;20205;-67
2021/11/14 10:42:46;;;;;;;14.47;11.70;;;13.90;99.90;;;;;;5030677;28;20616;-66
2021/11/14 10:45:12;;;;;;;18.33;12.80;;;13.90;99.90;;;;;;5030941;28;20206;-65
2021/11/14 10:47:39;;;;;;;14.47;11.43;;;13.90;99.90;;;;;;5030812;28;20222;-64
2021/11/14 10:50:08;;;;;;;15.97;12.17;;;13.70;99.90;;;;;;5030700;28;20217;-64
2021/11/14 10:52:36;;;;;;;15.27;12.03;;;13.60;99.90;;;;;;5031028;28;20784;-65
2021/11/14 10:55:08;;;;;;;15.47;11.53;;;13.50;99.90;;;;;;5030687;28;20596;-63
2021/11/14 10:57:37;;;;;;;16.87;12.63;;;13.40;99.90;;;;;;5031282;28;20264;-62
2021/11/14 11:00:07;;;;;;;17.97;14.03;;;13.30;99.90;;;;;;5031267;28;20213;-62
2021/11/14 11:02:34;;;;;;;18.13;13.53;;;13.10;99.90;;;;;;5031194;28;20226;-65
2021/11/14 11:05:11;;;;;;;18.30;13.20;;;12.90;99.90;;;;;;5030762;28;20237;-65
2021/11/14 11:07:41;;;;;;;18.77;13.00;;;12.80;99.90;;;;;;5030848;28;20210;-67
2021/11/14 11:10:10;;;;;;;15.87;11.97;;;12.80;99.90;;;;;;5030852;28;20216;-66
2021/11/14 11:12:37;;;;;;;16.20;12.23;;;12.80;99.90;;;;;;5031022;28;20230;-64
2021/11/14 11:15:06;;;;;;;17.73;12.83;;;12.80;99.90;;;;;;5030931;28;20213;-64
2021/11/14 11:17:44;;;;;;;18.80;14.00;;;12.80;99.90;;;;;;5030749;28;20209;-65
2021/11/14 11:20:14;;;;;;;19.17;12.93;;;12.80;99.90;;;;;;5030962;28;20276;-65
2021/11/14 11:22:53;;;;;;;16.70;12.47;;;13.00;99.90;;;;;;5030655;28;20640;-67
2021/11/14 11:25:38;;;;;;;16.13;12.37;;;13.20;99.90;;;;;;5030668;28;20263;-65
2021/11/14 11:28:07;;;;;;;15.30;11.37;;;13.40;99.90;;;;;;5030313;28;20225;-66
2021/11/14 11:30:37;;;;;;;13.53;10.60;;;13.60;99.90;;;;;;5031008;28;20206;-65
2021/11/14 11:33:04;;;;;;;16.03;10.63;;;13.70;99.90;;;;;;5031327;28;20601;-66
2021/11/14 11:35:32;;;;;;;14.10;10.33;;;13.70;99.90;;;;;;5031641;28;20233;-63
2021/11/14 11:37:59;;;;;;;14.63;10.53;;;13.80;99.90;;;;;;5034164;28;20497;-63
2021/11/14 11:40:27;;;;;;;14.30;10.60;;;13.80;99.90;;;;;;5034100;28;20427;-63
2021/11/14 11:42:55;;;;;;;16.47;11.63;;;13.70;99.90;;;;;;5034074;28;20578;-65
2021/11/14 11:45:27;;;;;;;15.87;11.40;;;13.50;99.90;;;;;;5034429;28;20206;-64
2021/11/14 11:47:56;;;;;;;20.67;13.33;;;13.40;99.90;;;;;;5034184;28;20232;-66
2021/11/14 11:50:26;;;;;;;20.23;14.63;;;13.30;99.90;;;;;;5034119;28;20728;-66
2021/11/14 11:52:53;;;;;;;20.57;14.73;;;13.10;99.90;;;;;;5034015;28;20298;-67
2021/11/14 11:55:22;;;;;;;19.53;14.07;;;12.90;99.90;;;;;;5033278;28;20348;-63
2021/11/14 11:57:49;;;;;;;23.20;16.37;;;12.90;99.90;;;;;;5033848;28;20260;-62
2021/11/14 12:00:18;;;;;;;21.10;14.83;;;13.00;99.90;;;;;;5033965;28;20207;-64
2021/11/14 12:02:45;;;;;;;21.63;14.27;;;12.90;99.90;;;;;;5033995;28;20312;-63
2021/11/14 12:05:14;;;;;;;23.10;15.20;;;12.90;99.90;;;;;;5033784;28;20210;-64
2021/11/14 12:07:46;;;;;;;22.13;15.30;;;12.90;99.90;;;;;;5033720;28;20226;-64
2021/11/14 12:10:14;;;;;;;20.47;14.33;;;12.90;99.90;;;;;;5033961;28;20233;-63
2021/11/14 12:12:52;;;;;;;18.33;13.33;;;13.00;99.90;;;;;;5033624;28;20232;-63
2021/11/14 12:15:23;;;;;;;19.77;13.77;;;13.20;99.90;;;;;;5034119;28;20240;-63
2021/11/14 12:17:58;;;;;;;18.50;13.67;;;13.40;99.90;;;;;;5033663;28;20705;-63
2021/11/14 12:20:29;;;;;;;16.73;13.03;;;13.60;99.90;;;;;;5033481;28;20595;-64
2021/11/14 12:22:58;;;;;;;18.60;13.30;;;13.70;99.90;;;;;;5033579;28;20210;-64
2021/11/14 12:25:29;;;;;;;17.17;12.50;;;13.70;99.90;;;;;;5033566;28;20216;-64
2021/11/14 12:28:06;;;;;;;17.23;11.93;;;13.70;99.90;;;;;;5033563;28;20226;-64
2021/11/14 12:30:37;;;;;;;16.17;11.77;;;13.80;99.90;;;;;;5033788;28;20210;-64
2021/11/14 12:33:07;;;;;;;16.13;11.70;;;13.70;99.90;;;;;;5034457;28;20963;-64